Flight Track Log - Related Links

Times and Time Zones

All times are in EDT time to prevent confusion due to time zone crossing. See the N960DL flight status page for this flight to view local times or setup timezone preferences in your user account.

Time Position Orientation Groundspeed Altitude Reporting Facility
EDT Latitude Longitude Course Direction KTS MPH feet Rate Location/Type
Fri 06:31:07 PM 35.1956 -80.9533 270° West 152 175 1,600  Level Atlanta Center
Fri 06:32:39 PM 35.1019 -80.9694 188° South 272 313 4,600 2,282 Climbing Atlanta Center
Fri 06:33:29 PM 35.0914 -81.0436 260° West 272 313 7,000 1,909 Climbing Atlanta Center
Fri 06:34:00 PM 35.2271 -81.3090 242° Southwest  Level FlightAware Approximate
Fri 06:34:29 PM 35.0972 -81.1219 275° West 264 304 8,100  Level Atlanta Center
Fri 06:34:48 PM 35.1086 -81.1569 292° West 264 304 8,300 1,800 Climbing Atlanta Center
Fri 06:35:00 PM 35.1731 -81.4205 239° Southwest  Level FlightAware Approximate
Fri 06:35:29 PM 35.1289 -81.2225 291° West 275 316 9,900  Level Atlanta Center
Fri 06:36:00 PM 35.1334 -81.5363 270° West  Level FlightAware Approximate
Fri 06:36:29 PM 35.1353 -81.3161 275° West 331 381 12,200  Level Atlanta Center
Fri 06:37:29 PM 35.1417 -81.4225 274° West 340 391 14,400 2,300 Climbing Atlanta Center
Fri 06:38:29 PM 35.1461 -81.5419 273° West 345 397 16,800 2,200 Climbing Atlanta Center
Fri 06:39:29 PM 35.1194 -81.6619 255° West 352 405 18,800 1,850 Climbing Atlanta Center
Fri 06:40:29 PM 35.0883 -81.7797 252° West 364 419 20,500 1,400 Climbing Atlanta Center
Fri 06:41:29 PM 35.0572 -81.9100 254° West 380 437 21,600 950 Climbing Atlanta Center
Fri 06:42:29 PM 35.0278 -82.0272 253° West 396 456 22,400 700 Climbing Atlanta Center
Fri 06:43:29 PM 34.9903 -82.1653 252° West 420 483 23,000 300 Climbing Atlanta Center
Fri 06:44:29 PM 34.9589 -82.2900 253° West 412 474 23,000  Level Atlanta Center
Fri 06:45:29 PM 34.9231 -82.4275 252° West 412 474 23,000  Level Atlanta Center
Fri 06:46:29 PM 34.8914 -82.5575 253° West 407 468 23,000  Level Atlanta Center
Fri 06:47:29 PM 34.8553 -82.6897 252° West 406 467 23,000  Level Atlanta Center
Fri 06:48:29 PM 34.7878 -82.7994 233° Southwest 406 467 23,000  Level Atlanta Center
Fri 06:49:29 PM 34.7075 -82.9219 231° Southwest 420 483 23,000  Level Atlanta Center
Fri 06:50:29 PM 34.6333 -83.0314 231° Southwest 420 483 23,000  Level Atlanta Center
Fri 06:51:29 PM 34.5611 -83.1408 231° Southwest 427 491 23,000  Level Atlanta Center
Fri 06:52:29 PM 34.4847 -83.2525 230° Southwest 427 491 23,000  Level Atlanta Center
Fri 06:53:29 PM 34.4144 -83.3614 232° Southwest 421 484 23,000 -600 Level Atlanta Center
Fri 06:54:29 PM 34.3419 -83.4653 230° Southwest 421 484 21,800 -1,750 Descending Atlanta Center
Fri 06:55:29 PM 34.2733 -83.5686 231° Southwest 407 468 19,500 -2,300 Descending Atlanta Center
Fri 06:56:29 PM 34.2069 -83.6644 230° Southwest 384 442 17,200 -2,100 Descending Atlanta Center
Fri 06:57:29 PM 34.1508 -83.7450 230° Southwest 372 428 15,300 -1,600 Descending Atlanta Center
Fri 06:58:29 PM 34.0883 -83.8381 231° Southwest 361 415 14,000 -897 Descending Atlanta Center
Fri 06:58:56 PM 34.0500 -83.8833 224° Southwest 355 409 14,000 -1,034 Level Atlanta TRACON
Fri 06:59:56 PM 33.9667 -83.9667 220° Southwest 353 406 12,500 -1,350 Descending Atlanta TRACON
Fri 07:00:56 PM 33.9000 -84.0500 226° Southwest 345 397 11,300 -968 Descending Atlanta TRACON
Fri 07:01:29 PM 33.8736 -84.0714 214° Southwest 352 405 11,000 -300 Descending Atlanta Center
Fri 07:01:56 PM 33.8333 -84.1333 232° Southwest 340 391 11,000  Level Atlanta TRACON
Fri 07:02:56 PM 33.8000 -84.2333 248° West 337 388 11,000  Level Atlanta TRACON
Fri 07:03:56 PM 33.7500 -84.3167 234° Southwest 289 333 11,000 -100 Level Atlanta TRACON
Fri 07:04:56 PM 33.7333 -84.4000 256° West 265 305 10,800 -1,200 Descending Atlanta TRACON
Fri 07:05:56 PM 33.7333 -84.4833 270° West 264 304 8,600 -2,348 Descending Atlanta TRACON
Fri 07:06:51 PM 33.7333 -84.5667 270° West 271 312 6,300 -1,826 Descending Atlanta TRACON
Fri 07:07:51 PM 33.7167 -84.6500 257° West 255 293 5,100 -1,200 Descending Atlanta TRACON

Login

Don't have an account? Register now (free) for customized features, flight alerts, and more!